sensor_id;sensor_type;location;lat;lon;timestamp;pressure;altitude;pressure_sealevel;temperature;humidity
10897;BME280;5501;51.176;6.470;2023-10-13T00:00:35;100757.03;;;19.29;100.00
10897;BME280;5501;51.176;6.470;2023-10-13T00:05:43;100745.97;;;19.20;100.00
10897;BME280;5501;51.176;6.470;2023-10-13T00:10:45;100748.38;;;19.24;100.00
10897;BME280;5501;51.176;6.470;2023-10-13T00:15:47;100745.31;;;19.30;100.00
10897;BME280;5501;51.176;6.470;2023-10-13T00:21:00;100739.94;;;19.30;100.00
10897;BME280;5501;51.176;6.470;2023-10-13T00:26:02;100731.84;;;19.30;100.00
10897;BME280;5501;51.176;6.470;2023-10-13T00:31:04;100724.91;;;19.26;100.00
10897;BME280;5501;51.176;6.470;2023-10-13T00:36:16;100720.16;;;19.30;100.00
10897;BME280;5501;51.176;6.470;2023-10-13T00:41:20;100717.00;;;19.23;100.00
10897;BME280;5501;51.176;6.470;2023-10-13T00:46:43;100717.38;;;19.31;100.00
10897;BME280;5501;51.176;6.470;2023-10-13T00:51:46;100711.28;;;19.28;100.00
10897;BME280;5501;51.176;6.470;2023-10-13T00:56:50;100701.19;;;19.31;100.00
10897;BME280;5501;51.176;6.470;2023-10-13T01:02:00;100702.59;;;19.23;100.00
10897;BME280;5501;51.176;6.470;2023-10-13T01:07:21;100698.47;;;19.17;100.00
10897;BME280;5501;51.176;6.470;2023-10-13T01:12:25;100691.34;;;19.16;100.00
10897;BME280;5501;51.176;6.470;2023-10-13T01:17:26;100680.19;;;19.08;100.00
10897;BME280;5501;51.176;6.470;2023-10-13T01:22:33;100674.88;;;19.07;100.00
10897;BME280;5501;51.176;6.470;2023-10-13T01:27:37;100671.44;;;19.05;100.00
10897;BME280;5501;51.176;6.470;2023-10-13T01:32:43;100654.19;;;19.07;100.00
10897;BME280;5501;51.176;6.470;2023-10-13T01:37:47;100657.25;;;19.01;100.00
10897;BME280;5501;51.176;6.470;2023-10-13T01:42:48;100649.94;;;19.03;100.00
10897;BME280;5501;51.176;6.470;2023-10-13T01:47:56;100640.31;;;18.99;100.00
10897;BME280;5501;51.176;6.470;2023-10-13T01:52:58;100625.69;;;19.03;100.00
10897;BME280;5501;51.176;6.470;2023-10-13T01:58:14;100618.84;;;18.98;100.00
10897;BME280;5501;51.176;6.470;2023-10-13T02:03:24;100607.00;;;19.00;100.00
10897;BME280;5501;51.176;6.470;2023-10-13T02:08:25;100605.19;;;19.01;100.00
10897;BME280;5501;51.176;6.470;2023-10-13T02:13:28;100606.25;;;18.98;100.00
10897;BME280;5501;51.176;6.470;2023-10-13T02:18:31;100599.47;;;19.05;100.00
10897;BME280;5501;51.176;6.470;2023-10-13T02:23:42;100598.72;;;19.03;100.00
10897;BME280;5501;51.176;6.470;2023-10-13T02:28:47;100588.91;;;19.02;100.00
10897;BME280;5501;51.176;6.470;2023-10-13T02:33:54;100578.06;;;18.90;100.00
10897;BME280;5501;51.176;6.470;2023-10-13T02:38:56;100572.09;;;18.85;100.00
10897;BME280;5501;51.176;6.470;2023-10-13T02:43:59;100566.28;;;18.91;100.00
10897;BME280;5501;51.176;6.470;2023-10-13T02:49:02;100554.66;;;18.90;100.00
10897;BME280;5501;51.176;6.470;2023-10-13T02:54:12;100556.81;;;18.85;100.00
10897;BME280;5501;51.176;6.470;2023-10-13T02:59:20;100547.25;;;18.94;100.00
10897;BME280;5501;51.176;6.470;2023-10-13T03:04:35;100538.09;;;18.96;100.00
10897;BME280;5501;51.176;6.470;2023-10-13T03:09:40;100529.25;;;18.94;100.00
10897;BME280;5501;51.176;6.470;2023-10-13T03:14:51;100509.50;;;18.94;100.00
10897;BME280;5501;51.176;6.470;2023-10-13T03:19:56;100509.41;;;18.95;100.00
10897;BME280;5501;51.176;6.470;2023-10-13T03:24:59;100492.78;;;18.89;100.00
10897;BME280;5501;51.176;6.470;2023-10-13T03:30:08;100495.38;;;18.90;100.00
10897;BME280;5501;51.176;6.470;2023-10-13T03:35:13;100492.59;;;18.92;100.00
10897;BME280;5501;51.176;6.470;2023-10-13T03:40:26;100480.31;;;19.00;100.00
10897;BME280;5501;51.176;6.470;2023-10-13T03:45:28;100461.88;;;18.94;100.00
10897;BME280;5501;51.176;6.470;2023-10-13T03:50:33;100462.44;;;18.99;100.00
10897;BME280;5501;51.176;6.470;2023-10-13T03:55:37;100467.19;;;19.08;100.00
10897;BME280;5501;51.176;6.470;2023-10-13T04:00:38;100463.75;;;19.06;100.00
10897;BME280;5501;51.176;6.470;2023-10-13T04:05:40;100449.50;;;19.04;100.00
10897;BME280;5501;51.176;6.470;2023-10-13T04:10:44;100456.41;;;19.08;100.00
10897;BME280;5501;51.176;6.470;2023-10-13T04:15:45;100433.78;;;19.11;100.00
10897;BME280;5501;51.176;6.470;2023-10-13T04:21:05;100424.69;;;19.26;100.00
10897;BME280;5501;51.176;6.470;2023-10-13T04:26:20;100415.59;;;19.14;100.00
10897;BME280;5501;51.176;6.470;2023-10-13T04:31:37;100408.69;;;19.23;100.00
10897;BME280;5501;51.176;6.470;2023-10-13T04:36:57;100390.25;;;19.17;100.00
10897;BME280;5501;51.176;6.470;2023-10-13T04:42:18;100390.25;;;19.17;100.00
10897;BME280;5501;51.176;6.470;2023-10-13T04:47:40;100381.47;;;19.13;100.00
10897;BME280;5501;51.176;6.470;2023-10-13T04:52:49;100387.44;;;19.18;100.00
10897;BME280;5501;51.176;6.470;2023-10-13T04:58:04;100383.78;;;19.19;100.00
10897;BME280;5501;51.176;6.470;2023-10-13T05:03:16;100374.53;;;19.23;100.00
10897;BME280;5501;51.176;6.470;2023-10-13T05:08:36;100368.00;;;19.13;100.00
10897;BME280;5501;51.176;6.470;2023-10-13T05:13:56;100368.97;;;19.12;100.00
10897;BME280;5501;51.176;6.470;2023-10-13T05:19:16;100373.53;;;19.12;100.00
10897;BME280;5501;51.176;6.470;2023-10-13T05:24:37;100374.38;;;19.12;100.00
10897;BME280;5501;51.176;6.470;2023-10-13T05:29:57;100381.44;;;19.27;100.00
10897;BME280;5501;51.176;6.470;2023-10-13T05:35:20;100383.16;;;19.28;100.00
10897;BME280;5501;51.176;6.470;2023-10-13T05:41:11;100395.47;;;19.32;100.00
10897;BME280;5501;51.176;6.470;2023-10-13T05:46:32;100409.59;;;19.23;100.00
10897;BME280;5501;51.176;6.470;2023-10-13T05:51:40;100386.84;;;19.27;100.00
10897;BME280;5501;51.176;6.470;2023-10-13T05:56:43;100382.63;;;19.23;100.00
10897;BME280;5501;51.176;6.470;2023-10-13T06:02:03;100349.94;;;19.28;100.00
10897;BME280;5501;51.176;6.470;2023-10-13T06:07:24;100342.72;;;19.28;100.00
10897;BME280;5501;51.176;6.470;2023-10-13T06:12:44;100338.97;;;19.43;100.00
10897;BME280;5501;51.176;6.470;2023-10-13T06:18:04;100311.47;;;19.38;100.00
10897;BME280;5501;51.176;6.470;2023-10-13T06:23:24;100299.34;;;19.44;100.00
10897;BME280;5501;51.176;6.470;2023-10-13T06:28:44;100288.69;;;19.42;100.00
10897;BME280;5501;51.176;6.470;2023-10-13T06:33:48;100301.00;;;19.46;100.00
10897;BME280;5501;51.176;6.470;2023-10-13T06:38:50;100299.69;;;19.39;100.00
10897;BME280;5501;51.176;6.470;2023-10-13T06:43:57;100300.75;;;19.49;100.00
10897;BME280;5501;51.176;6.470;2023-10-13T06:49:01;100287.78;;;19.54;100.00
10897;BME280;5501;51.176;6.470;2023-10-13T06:54:05;100283.63;;;19.50;100.00
10897;BME280;5501;51.176;6.470;2023-10-13T06:59:11;100283.72;;;19.49;100.00
10897;BME280;5501;51.176;6.470;2023-10-13T07:04:15;100287.59;;;19.57;100.00
10897;BME280;5501;51.176;6.470;2023-10-13T07:09:18;100282.72;;;19.62;100.00
10897;BME280;5501;51.176;6.470;2023-10-13T07:14:38;100283.50;;;19.52;100.00
10897;BME280;5501;51.176;6.470;2023-10-13T07:19:41;100285.41;;;19.62;100.00
10897;BME280;5501;51.176;6.470;2023-10-13T07:24:54;100279.81;;;19.65;100.00
10897;BME280;5501;51.176;6.470;2023-10-13T07:29:59;100280.22;;;19.72;100.00
10897;BME280;5501;51.176;6.470;2023-10-13T07:35:16;100281.53;;;19.79;100.00
10897;BME280;5501;51.176;6.470;2023-10-13T07:40:22;100275.50;;;19.75;100.00
10897;BME280;5501;51.176;6.470;2023-10-13T07:45:41;100273.53;;;19.77;100.00
10897;BME280;5501;51.176;6.470;2023-10-13T07:50:43;100271.13;;;19.85;100.00
10897;BME280;5501;51.176;6.470;2023-10-13T07:55:47;100266.34;;;20.02;100.00
10897;BME280;5501;51.176;6.470;2023-10-13T08:00:48;100255.13;;;20.08;100.00
10897;BME280;5501;51.176;6.470;2023-10-13T08:05:55;100253.00;;;20.24;100.00
10897;BME280;5501;51.176;6.470;2023-10-13T08:11:22;100243.69;;;20.28;100.00
10897;BME280;5501;51.176;6.470;2023-10-13T08:16:25;100243.66;;;20.40;100.00
10897;BME280;5501;51.176;6.470;2023-10-13T08:21:32;100245.31;;;20.54;100.00
10897;BME280;5501;51.176;6.470;2023-10-13T08:26:35;100252.47;;;20.66;100.00
10897;BME280;5501;51.176;6.470;2023-10-13T08:31:37;100242.41;;;20.68;100.00
10897;BME280;5501;51.176;6.470;2023-10-13T08:36:42;100233.34;;;20.80;100.00
10897;BME280;5501;51.176;6.470;2023-10-13T08:41:45;100228.03;;;21.02;100.00
10897;BME280;5501;51.176;6.470;2023-10-13T08:47:14;100222.13;;;21.08;100.00
10897;BME280;5501;51.176;6.470;2023-10-13T08:52:22;100223.66;;;21.34;100.00
10897;BME280;5501;51.176;6.470;2023-10-13T08:57:53;100219.72;;;21.38;98.69
10897;BME280;5501;51.176;6.470;2023-10-13T09:02:54;100201.03;;;21.35;97.89
10897;BME280;5501;51.176;6.470;2023-10-13T09:08:25;100209.41;;;21.43;97.58
10897;BME280;5501;51.176;6.470;2023-10-13T09:13:36;100205.81;;;21.64;94.59
10897;BME280;5501;51.176;6.470;2023-10-13T09:18:47;100197.81;;;21.85;92.38
10897;BME280;5501;51.176;6.470;2023-10-13T09:23:49;100187.75;;;21.76;92.84
10897;BME280;5501;51.176;6.470;2023-10-13T09:28:51;100188.69;;;21.86;91.70
10897;BME280;5501;51.176;6.470;2023-10-13T09:33:54;100176.44;;;22.13;89.76
10897;BME280;5501;51.176;6.470;2023-10-13T09:38:58;100173.50;;;22.37;86.33
10897;BME280;5501;51.176;6.470;2023-10-13T09:44:31;100182.56;;;22.58;86.35
10897;BME280;5501;51.176;6.470;2023-10-13T09:49:39;100178.34;;;22.65;85.68
10897;BME280;5501;51.176;6.470;2023-10-13T09:54:53;100173.56;;;22.78;84.42
10897;BME280;5501;51.176;6.470;2023-10-13T10:00:15;100178.41;;;22.74;84.57
10897;BME280;5501;51.176;6.470;2023-10-13T10:05:36;100163.28;;;22.72;85.55
10897;BME280;5501;51.176;6.470;2023-10-13T10:10:52;100163.91;;;22.85;83.24
10897;BME280;5501;51.176;6.470;2023-10-13T10:16:00;100164.81;;;22.95;82.03
10897;BME280;5501;51.176;6.470;2023-10-13T10:21:05;100142.13;;;22.96;82.72
10897;BME280;5501;51.176;6.470;2023-10-13T10:26:10;100138.88;;;23.02;80.00
10897;BME280;5501;51.176;6.470;2023-10-13T10:31:15;100134.09;;;23.15;78.64
10897;BME280;5501;51.176;6.470;2023-10-13T10:36:29;100143.75;;;23.08;80.01
10897;BME280;5501;51.176;6.470;2023-10-13T10:41:31;100125.81;;;23.16;80.12
10897;BME280;5501;51.176;6.470;2023-10-13T10:46:53;100114.41;;;23.13;80.62
10897;BME280;5501;51.176;6.470;2023-10-13T10:52:00;100113.34;;;23.25;79.46
10897;BME280;5501;51.176;6.470;2023-10-13T10:57:02;100093.78;;;23.31;79.07
10897;BME280;5501;51.176;6.470;2023-10-13T11:02:13;100088.78;;;23.36;77.50
10897;BME280;5501;51.176;6.470;2023-10-13T11:07:24;100093.66;;;23.42;76.98
10897;BME280;5501;51.176;6.470;2023-10-13T11:12:25;100082.84;;;23.61;75.46
10897;BME280;5501;51.176;6.470;2023-10-13T11:17:28;100067.00;;;23.85;75.11
10897;BME280;5501;51.176;6.470;2023-10-13T11:22:47;100068.91;;;24.03;74.17
10897;BME280;5501;51.176;6.470;2023-10-13T11:27:49;100046.00;;;24.06;73.17
10897;BME280;5501;51.176;6.470;2023-10-13T11:37:59;100042.59;;;24.23;71.32
10897;BME280;5501;51.176;6.470;2023-10-13T11:43:15;100032.53;;;24.33;71.50
10897;BME280;5501;51.176;6.470;2023-10-13T11:48:18;100041.22;;;24.56;71.12
10897;BME280;5501;51.176;6.470;2023-10-13T11:53:35;100041.97;;;24.48;70.30
10897;BME280;5501;51.176;6.470;2023-10-13T11:58:38;100038.66;;;24.54;68.58
10897;BME280;5501;51.176;6.470;2023-10-13T12:03:40;100027.41;;;24.30;68.43
10897;BME280;5501;51.176;6.470;2023-10-13T12:09:01;100022.81;;;24.40;67.67
10897;BME280;5501;51.176;6.470;2023-10-13T12:14:20;100015.31;;;24.52;66.52
10897;BME280;5501;51.176;6.470;2023-10-13T12:19:38;100006.78;;;24.37;63.97
10897;BME280;5501;51.176;6.470;2023-10-13T12:24:40;100008.19;;;24.51;62.50
10897;BME280;5501;51.176;6.470;2023-10-13T12:29:45;99994.22;;;24.36;64.36
10897;BME280;5501;51.176;6.470;2023-10-13T12:34:48;100000.78;;;24.43;63.77
10897;BME280;5501;51.176;6.470;2023-10-13T12:40:03;99992.66;;;24.34;64.22
10897;BME280;5501;51.176;6.470;2023-10-13T12:45:23;99993.31;;;24.45;64.75
10897;BME280;5501;51.176;6.470;2023-10-13T12:50:43;99994.63;;;24.41;65.21
10897;BME280;5501;51.176;6.470;2023-10-13T12:56:07;99991.78;;;24.33;64.79
10897;BME280;5501;51.176;6.470;2023-10-13T13:01:12;99998.22;;;24.32;62.86
10897;BME280;5501;51.176;6.470;2023-10-13T13:06:19;100003.66;;;24.32;61.39
10897;BME280;5501;51.176;6.470;2023-10-13T13:11:41;100000.22;;;24.30;60.34
10897;BME280;5501;51.176;6.470;2023-10-13T13:16:43;100000.78;;;24.43;58.83
10897;BME280;5501;51.176;6.470;2023-10-13T13:21:49;99991.63;;;24.35;59.00
10897;BME280;5501;51.176;6.470;2023-10-13T13:26:51;99988.78;;;24.36;55.65
10897;BME280;5501;51.176;6.470;2023-10-13T13:31:56;99987.91;;;24.26;56.26
10897;BME280;5501;51.176;6.470;2023-10-13T13:36:58;99989.66;;;24.27;57.96
10897;BME280;5501;51.176;6.470;2023-10-13T13:42:02;99989.34;;;24.30;57.48
10897;BME280;5501;51.176;6.470;2023-10-13T13:47:03;99974.78;;;24.31;58.52
10897;BME280;5501;51.176;6.470;2023-10-13T13:52:13;99984.38;;;24.26;58.94
10897;BME280;5501;51.176;6.470;2023-10-13T13:57:22;99976.38;;;24.14;60.73
10897;BME280;5501;51.176;6.470;2023-10-13T14:02:24;99970.53;;;24.09;60.69
10897;BME280;5501;51.176;6.470;2023-10-13T14:07:27;99973.13;;;23.92;62.50
10897;BME280;5501;51.176;6.470;2023-10-13T14:12:34;99958.34;;;23.85;62.98
10897;BME280;5501;51.176;6.470;2023-10-13T14:17:43;99953.25;;;23.63;63.88
10897;BME280;5501;51.176;6.470;2023-10-13T14:22:45;99959.09;;;23.68;62.35
10897;BME280;5501;51.176;6.470;2023-10-13T14:27:50;99952.81;;;23.58;62.73
10897;BME280;5501;51.176;6.470;2023-10-13T14:32:51;99961.09;;;23.56;62.53
10897;BME280;5501;51.176;6.470;2023-10-13T14:37:53;99947.25;;;23.50;63.35
10897;BME280;5501;51.176;6.470;2023-10-13T14:42:54;99941.09;;;23.48;61.93
10897;BME280;5501;51.176;6.470;2023-10-13T14:47:57;99934.66;;;23.30;62.79
10897;BME280;5501;51.176;6.470;2023-10-13T14:52:59;99942.53;;;23.33;62.49
10897;BME280;5501;51.176;6.470;2023-10-13T14:58:00;99953.09;;;23.36;61.98
10897;BME280;5501;51.176;6.470;2023-10-13T15:03:05;99945.66;;;23.28;62.46
10897;BME280;5501;51.176;6.470;2023-10-13T15:08:07;99936.78;;;23.26;62.59
10897;BME280;5501;51.176;6.470;2023-10-13T15:13:09;99929.47;;;23.17;62.57
10897;BME280;5501;51.176;6.470;2023-10-13T15:18:11;99937.03;;;23.14;62.63
10897;BME280;5501;51.176;6.470;2023-10-13T15:23:14;99944.50;;;23.21;61.78
10897;BME280;5501;51.176;6.470;2023-10-13T15:28:24;99939.91;;;23.12;62.41
10897;BME280;5501;51.176;6.470;2023-10-13T15:33:32;99933.91;;;23.09;62.92
10897;BME280;5501;51.176;6.470;2023-10-13T15:38:33;99924.91;;;23.18;62.15
10897;BME280;5501;51.176;6.470;2023-10-13T15:43:35;99915.31;;;22.95;62.94
10897;BME280;5501;51.176;6.470;2023-10-13T15:48:36;99907.91;;;22.97;63.85
10897;BME280;5501;51.176;6.470;2023-10-13T15:53:38;99906.19;;;23.15;61.65
10897;BME280;5501;51.176;6.470;2023-10-13T15:58:41;99898.19;;;23.04;61.28
10897;BME280;5501;51.176;6.470;2023-10-13T16:03:45;99894.75;;;23.02;61.35
10897;BME280;5501;51.176;6.470;2023-10-13T16:08:53;99895.63;;;22.93;62.08
10897;BME280;5501;51.176;6.470;2023-10-13T16:13:54;99890.88;;;22.95;61.88
10897;BME280;5501;51.176;6.470;2023-10-13T16:18:56;99897.03;;;22.97;62.07
10897;BME280;5501;51.176;6.470;2023-10-13T16:23:58;99889.00;;;22.76;62.57
10897;BME280;5501;51.176;6.470;2023-10-13T16:29:00;99876.41;;;22.66;64.79
10897;BME280;5501;51.176;6.470;2023-10-13T16:34:01;99888.97;;;22.67;64.49
10897;BME280;5501;51.176;6.470;2023-10-13T16:39:03;99884.97;;;22.61;64.00
10897;BME280;5501;51.176;6.470;2023-10-13T16:44:08;99865.03;;;22.72;63.12
10897;BME280;5501;51.176;6.470;2023-10-13T16:49:13;99864.56;;;22.67;63.42
10897;BME280;5501;51.176;6.470;2023-10-13T16:54:15;99856.41;;;22.57;64.29
10897;BME280;5501;51.176;6.470;2023-10-13T16:59:17;99849.00;;;22.50;65.16
10897;BME280;5501;51.176;6.470;2023-10-13T17:04:18;99858.00;;;22.50;65.21
10897;BME280;5501;51.176;6.470;2023-10-13T17:09:24;99844.09;;;22.44;67.30
10897;BME280;5501;51.176;6.470;2023-10-13T17:14:26;99847.78;;;22.43;68.39
10897;BME280;5501;51.176;6.470;2023-10-13T17:19:28;99852.13;;;22.15;71.60
10897;BME280;5501;51.176;6.470;2023-10-13T17:24:29;99854.69;;;22.17;71.25
10897;BME280;5501;51.176;6.470;2023-10-13T17:29:33;99847.44;;;22.17;72.62
10897;BME280;5501;51.176;6.470;2023-10-13T17:34:37;99841.69;;;22.11;72.99
10897;BME280;5501;51.176;6.470;2023-10-13T17:39:39;99854.78;;;22.06;72.66
10897;BME280;5501;51.176;6.470;2023-10-13T17:44:41;99845.69;;;22.07;73.21
10897;BME280;5501;51.176;6.470;2023-10-13T17:49:43;99835.56;;;22.09;72.93
10897;BME280;5501;51.176;6.470;2023-10-13T17:54:45;99810.31;;;22.08;72.31
10897;BME280;5501;51.176;6.470;2023-10-13T17:59:47;99802.22;;;22.18;72.54
10897;BME280;5501;51.176;6.470;2023-10-13T18:04:49;99810.91;;;22.12;72.59
10897;BME280;5501;51.176;6.470;2023-10-13T18:09:51;99794.69;;;22.21;71.49
10897;BME280;5501;51.176;6.470;2023-10-13T18:14:56;99796.34;;;22.03;72.85
10897;BME280;5501;51.176;6.470;2023-10-13T18:19:59;99781.81;;;22.14;72.03
10897;BME280;5501;51.176;6.470;2023-10-13T18:25:00;99775.13;;;22.18;71.83
10897;BME280;5501;51.176;6.470;2023-10-13T18:30:02;99772.69;;;22.15;72.02
10897;BME280;5501;51.176;6.470;2023-10-13T18:35:04;99769.56;;;22.10;73.79
10897;BME280;5501;51.176;6.470;2023-10-13T18:40:12;99762.53;;;21.98;76.80
10897;BME280;5501;51.176;6.470;2023-10-13T18:45:18;99750.34;;;21.73;78.53
10897;BME280;5501;51.176;6.470;2023-10-13T18:50:24;99734.69;;;21.77;79.02
10897;BME280;5501;51.176;6.470;2023-10-13T18:55:25;99719.94;;;21.70;80.29
10897;BME280;5501;51.176;6.470;2023-10-13T19:00:27;99723.03;;;21.56;80.84
10897;BME280;5501;51.176;6.470;2023-10-13T19:05:29;99696.84;;;21.66;79.88
10897;BME280;5501;51.176;6.470;2023-10-13T19:10:30;99693.25;;;21.56;79.09
10897;BME280;5501;51.176;6.470;2023-10-13T19:15:36;99685.31;;;21.64;79.25
10897;BME280;5501;51.176;6.470;2023-10-13T19:20:39;99675.38;;;21.74;77.26
10897;BME280;5501;51.176;6.470;2023-10-13T19:25:41;99662.53;;;21.66;77.93
10897;BME280;5501;51.176;6.470;2023-10-13T19:30:45;99672.84;;;21.72;79.28
10897;BME280;5501;51.176;6.470;2023-10-13T19:35:47;99672.69;;;21.44;86.63
10897;BME280;5501;51.176;6.470;2023-10-13T19:40:51;99678.69;;;20.97;91.78
10897;BME280;5501;51.176;6.470;2023-10-13T19:45:53;99673.34;;;20.65;95.76
10897;BME280;5501;51.176;6.470;2023-10-13T19:50:54;99668.72;;;20.56;96.29
10897;BME280;5501;51.176;6.470;2023-10-13T19:55:56;99671.03;;;20.61;96.73
10897;BME280;5501;51.176;6.470;2023-10-13T20:01:06;99669.09;;;20.52;98.01
10897;BME280;5501;51.176;6.470;2023-10-13T20:06:08;99674.22;;;20.66;97.43
10897;BME280;5501;51.176;6.470;2023-10-13T20:11:10;99668.81;;;20.66;96.63
10897;BME280;5501;51.176;6.470;2023-10-13T20:16:14;99672.81;;;20.71;96.21
10897;BME280;5501;51.176;6.470;2023-10-13T20:21:21;99673.66;;;20.72;96.95
10897;BME280;5501;51.176;6.470;2023-10-13T20:26:27;99664.53;;;20.63;98.52
10897;BME280;5501;51.176;6.470;2023-10-13T20:31:28;99641.78;;;20.66;98.57
10897;BME280;5501;51.176;6.470;2023-10-13T20:36:37;99615.66;;;20.76;94.37
10897;BME280;5501;51.176;6.470;2023-10-13T20:41:39;99615.47;;;20.88;91.89
10897;BME280;5501;51.176;6.470;2023-10-13T20:46:41;99603.94;;;21.07;90.05
10897;BME280;5501;51.176;6.470;2023-10-13T20:51:42;99608.50;;;21.16;88.65
10897;BME280;5501;51.176;6.470;2023-10-13T20:56:44;99616.81;;;21.24;86.98
10897;BME280;5501;51.176;6.470;2023-10-13T21:01:46;99611.75;;;21.40;85.80
10897;BME280;5501;51.176;6.470;2023-10-13T21:06:47;99600.91;;;21.40;85.78
10897;BME280;5501;51.176;6.470;2023-10-13T21:11:51;99602.91;;;21.38;85.00
10897;BME280;5501;51.176;6.470;2023-10-13T21:16:52;99596.50;;;21.39;84.58
10897;BME280;5501;51.176;6.470;2023-10-13T21:21:56;99587.56;;;21.48;84.13
10897;BME280;5501;51.176;6.470;2023-10-13T21:26:57;99597.53;;;21.57;82.58
10897;BME280;5501;51.176;6.470;2023-10-13T21:32:00;99589.00;;;21.52;83.32
10897;BME280;5501;51.176;6.470;2023-10-13T21:37:03;99583.03;;;21.48;82.66
10897;BME280;5501;51.176;6.470;2023-10-13T21:42:04;99564.81;;;21.60;82.46
10897;BME280;5501;51.176;6.470;2023-10-13T21:47:08;99552.25;;;21.49;82.82
10897;BME280;5501;51.176;6.470;2023-10-13T21:52:10;99564.53;;;21.63;82.35
10897;BME280;5501;51.176;6.470;2023-10-13T21:57:14;99564.22;;;21.66;82.58
10897;BME280;5501;51.176;6.470;2023-10-13T22:02:19;99563.97;;;21.69;82.64
10897;BME280;5501;51.176;6.470;2023-10-13T22:07:22;99545.28;;;21.66;82.23
10897;BME280;5501;51.176;6.470;2023-10-13T22:12:24;99550.13;;;21.53;83.45
10897;BME280;5501;51.176;6.470;2023-10-13T22:17:25;99555.13;;;21.57;83.05
10897;BME280;5501;51.176;6.470;2023-10-13T22:22:27;99524.06;;;21.52;82.83
10897;BME280;5501;51.176;6.470;2023-10-13T22:27:29;99527.28;;;21.27;84.88
10897;BME280;5501;51.176;6.470;2023-10-13T22:32:31;99518.47;;;21.34;84.57
10897;BME280;5501;51.176;6.470;2023-10-13T22:37:33;99514.91;;;21.24;84.23
10897;BME280;5501;51.176;6.470;2023-10-13T22:42:35;99531.69;;;21.28;82.91
10897;BME280;5501;51.176;6.470;2023-10-13T22:47:37;99514.94;;;21.34;82.04
10897;BME280;5501;51.176;6.470;2023-10-13T22:52:39;99495.38;;;21.21;82.13
10897;BME280;5501;51.176;6.470;2023-10-13T22:57:46;99513.50;;;21.39;81.16
10897;BME280;5501;51.176;6.470;2023-10-13T23:02:48;99500.91;;;21.19;83.24
10897;BME280;5501;51.176;6.470;2023-10-13T23:07:50;99501.94;;;21.28;83.24
10897;BME280;5501;51.176;6.470;2023-10-13T23:13:02;99496.38;;;21.20;84.11
10897;BME280;5501;51.176;6.470;2023-10-13T23:18:04;99505.22;;;21.22;83.71
10897;BME280;5501;51.176;6.470;2023-10-13T23:23:11;99505.22;;;21.22;82.99
10897;BME280;5501;51.176;6.470;2023-10-13T23:28:13;99512.91;;;21.26;82.90
10897;BME280;5501;51.176;6.470;2023-10-13T23:33:26;99514.88;;;21.15;83.99
10897;BME280;5501;51.176;6.470;2023-10-13T23:38:29;99510.16;;;21.17;84.06
10897;BME280;5501;51.176;6.470;2023-10-13T23:43:35;99515.13;;;21.12;83.55
10897;BME280;5501;51.176;6.470;2023-10-13T23:48:45;99517.00;;;21.21;83.19
10897;BME280;5501;51.176;6.470;2023-10-13T23:53:48;99523.09;;;21.04;82.86
10897;BME280;5501;51.176;6.470;2023-10-13T23:58:49;99520.41;;;21.13;80.59
